createdAt,value
2022-11-10T00:02:44.629Z,8.70
2022-11-10T00:07:46.318Z,6.90
2022-11-10T00:12:48.081Z,8.13
2022-11-10T00:17:49.898Z,8.82
2022-11-10T00:22:51.583Z,3.38
2022-11-10T00:27:53.682Z,9.43
2022-11-10T00:32:55.301Z,7.43
2022-11-10T00:37:56.974Z,6.65
2022-11-10T00:42:58.667Z,5.63
2022-11-10T00:48:00.385Z,6.97
2022-11-10T00:53:02.061Z,3.83
2022-11-10T00:58:03.714Z,7.07
2022-11-10T01:03:05.696Z,7.55
2022-11-10T01:08:07.374Z,7.57
2022-11-10T01:13:09.198Z,8.43
2022-11-10T01:18:10.958Z,5.05
2022-11-10T01:23:12.621Z,7.55
2022-11-10T01:28:14.249Z,7.50
2022-11-10T01:33:17.702Z,8.65
2022-11-10T01:38:19.796Z,7.22
2022-11-10T01:43:22.089Z,7.43
2022-11-10T01:48:29.790Z,8.45
2022-11-10T01:53:35.784Z,4.85
2022-11-10T01:58:40.584Z,17.08
2022-11-10T02:03:53.672Z,9.50
2022-11-10T02:08:56.830Z,10.13
2022-11-10T02:13:59.987Z,8.93
2022-11-10T02:19:16.910Z,8.07
2022-11-10T02:24:18.718Z,10.15
2022-11-10T02:29:20.938Z,8.48
2022-11-10T02:34:22.645Z,18.58
2022-11-10T02:39:24.300Z,12.65
2022-11-10T02:44:25.975Z,8.85
2022-11-10T02:49:27.787Z,8.52
2022-11-10T02:54:29.467Z,13.82
2022-11-10T02:59:31.124Z,7.43
2022-11-10T03:04:32.783Z,8.68
2022-11-10T03:09:34.498Z,8.40
2022-11-10T03:14:36.159Z,13.77
2022-11-10T03:19:37.838Z,7.40
2022-11-10T03:24:39.597Z,9.73
2022-11-10T03:29:41.252Z,12.65
2022-11-10T03:34:42.903Z,14.75
2022-11-10T03:39:44.657Z,10.10
2022-11-10T03:44:46.353Z,8.65
2022-11-10T03:49:47.982Z,13.95
2022-11-10T03:54:49.688Z,10.23
2022-11-10T03:59:51.778Z,9.43
2022-11-10T04:05:11.959Z,10.15
2022-11-10T04:10:13.943Z,9.48
2022-11-10T04:15:34.349Z,10.43
2022-11-10T04:20:36.088Z,8.40
2022-11-10T04:25:58.147Z,10.82
2022-11-10T04:31:00.104Z,7.65
2022-11-10T04:36:02.194Z,9.50
2022-11-10T04:41:04.233Z,10.00
2022-11-10T04:46:07.609Z,8.20
2022-11-10T04:51:11.172Z,13.02
2022-11-10T04:56:17.514Z,9.52
2022-11-10T05:01:27.665Z,10.38
2022-11-10T05:06:29.860Z,8.57
2022-11-10T05:11:31.607Z,9.30
2022-11-10T05:16:33.273Z,10.05
2022-11-10T05:21:34.924Z,8.18
2022-11-10T05:26:36.549Z,7.72
2022-11-10T05:31:38.218Z,13.20
2022-11-10T05:36:39.968Z,10.77
2022-11-10T05:41:41.972Z,8.38
2022-11-10T05:46:44.082Z,10.68
2022-11-10T05:51:46.155Z,15.98
2022-11-10T05:56:47.856Z,13.75
2022-11-10T06:01:49.949Z,12.48
2022-11-10T06:06:51.685Z,8.35
2022-11-10T06:11:53.324Z,9.10
2022-11-10T06:16:54.986Z,13.70
2022-11-10T06:22:02.393Z,11.40
2022-11-10T06:27:06.835Z,7.57
2022-11-10T06:32:08.513Z,8.90
2022-11-10T06:37:10.612Z,9.45
2022-11-10T06:42:12.323Z,14.35
2022-11-10T06:47:14.408Z,10.15
2022-11-10T06:52:16.065Z,8.57
2022-11-10T06:57:18.275Z,6.53
2022-11-10T07:02:20.305Z,9.93
2022-11-10T07:07:22.221Z,8.32
2022-11-10T07:12:24.051Z,4.65
2022-11-10T07:17:25.720Z,10.02
2022-11-10T07:22:27.341Z,8.65
2022-11-10T07:27:29.058Z,13.77
2022-11-10T07:32:30.718Z,10.15
2022-11-10T07:37:32.361Z,6.75
2022-11-10T07:42:39.638Z,15.07
2022-11-10T07:47:41.326Z,10.15
2022-11-10T07:52:43.059Z,8.95
2022-11-10T07:57:44.701Z,5.88
2022-11-10T08:02:46.456Z,11.50
2022-11-10T08:07:48.215Z,13.10
2022-11-10T08:12:55.055Z,10.10
2022-11-10T08:18:15.974Z,17.13
2022-11-10T08:23:18.062Z,10.50
2022-11-10T08:28:20.437Z,9.90
2022-11-10T08:33:22.826Z,13.23
2022-11-10T08:38:24.901Z,9.23
2022-11-10T08:43:28.287Z,7.13
2022-11-10T08:48:29.972Z,9.60
2022-11-10T08:53:31.682Z,9.13
2022-11-10T08:58:33.396Z,5.28
2022-11-10T09:03:35.214Z,7.82
2022-11-10T09:08:38.360Z,7.88
2022-11-10T09:13:40.005Z,12.95
2022-11-10T09:18:41.717Z,4.85
2022-11-10T09:23:43.354Z,5.65
2022-11-10T09:28:45.025Z,7.40
2022-11-10T09:33:46.716Z,5.93
2022-11-10T09:38:48.408Z,4.57
2022-11-10T09:44:14.940Z,5.47
2022-11-10T09:49:38.566Z,8.70
2022-11-10T09:54:47.993Z,6.30
2022-11-10T09:59:49.764Z,7.00
2022-11-10T10:05:08.899Z,4.97
2022-11-10T10:10:29.356Z,14.48
2022-11-10T10:15:39.011Z,10.18
2022-11-10T10:21:12.680Z,10.15
2022-11-10T10:26:18.536Z,9.70
2022-11-10T10:31:26.769Z,6.47
2022-11-10T10:36:32.164Z,9.90
2022-11-10T10:41:36.482Z,6.45
2022-11-10T10:46:56.335Z,9.00
2022-11-10T10:52:05.657Z,8.77
2022-11-10T10:57:30.157Z,7.32
2022-11-10T11:02:32.591Z,4.43
2022-11-10T11:07:34.377Z,7.28
2022-11-10T11:12:36.009Z,7.38
2022-11-10T11:17:37.860Z,5.95
2022-11-10T11:22:52.584Z,5.57
2022-11-10T11:28:27.705Z,8.95
2022-11-10T11:33:45.199Z,4.10
2022-11-10T11:39:05.064Z,5.68
2022-11-10T11:44:09.823Z,4.90
2022-11-10T11:49:41.689Z,4.32
2022-11-10T11:55:22.110Z,20.65
2022-11-10T12:00:24.628Z,5.20
2022-11-10T12:05:43.930Z,4.15
2022-11-10T12:11:10.266Z,7.37
2022-11-10T12:16:21.940Z,1.80
2022-11-10T12:21:28.122Z,2.85
2022-11-10T12:26:55.728Z,7.10
2022-11-10T12:32:22.172Z,5.80
2022-11-10T12:37:37.793Z,7.53
2022-11-10T12:42:39.942Z,7.07
2022-11-10T12:47:44.933Z,12.73
2022-11-10T12:53:03.185Z,5.43
2022-11-10T12:58:07.214Z,4.90
2022-11-10T13:03:34.645Z,6.57
2022-11-10T13:08:42.431Z,6.88
2022-11-10T13:14:05.210Z,5.93
2022-11-10T13:19:33.895Z,5.28
2022-11-10T13:24:40.700Z,6.03
2022-11-10T13:29:48.258Z,5.80
2022-11-10T13:34:50.068Z,4.78
2022-11-10T13:39:52.809Z,7.55
2022-11-10T13:45:14.432Z,2.80
2022-11-10T13:50:40.855Z,3.60
2022-11-10T13:56:03.989Z,5.05
2022-11-10T14:01:17.627Z,3.78
2022-11-10T14:06:26.511Z,3.05
2022-11-10T14:11:40.379Z,7.22
2022-11-10T14:16:43.552Z,5.60
2022-11-10T14:21:57.900Z,6.50
2022-11-10T14:27:16.012Z,5.68
2022-11-10T14:32:24.316Z,5.10
2022-11-10T14:37:28.599Z,7.22
2022-11-10T14:42:33.225Z,6.93
2022-11-10T14:47:36.261Z,6.78
2022-11-10T14:52:40.000Z,5.90
2022-11-10T14:57:41.773Z,13.32
2022-11-10T15:02:43.712Z,3.75
2022-11-10T15:07:45.764Z,5.05
2022-11-10T15:13:00.269Z,6.55
2022-11-10T15:18:01.982Z,9.13
2022-11-10T15:23:12.317Z,11.85
2022-11-10T15:28:13.978Z,10.65
2022-11-10T15:33:20.006Z,7.82
2022-11-10T15:38:31.721Z,5.55
2022-11-10T15:43:33.410Z,12.18
2022-11-10T15:48:50.371Z,10.32
2022-11-10T15:53:52.958Z,13.48
2022-11-10T15:58:59.047Z,3.05
2022-11-10T16:04:02.401Z,10.70
2022-11-10T16:09:04.820Z,8.40
2022-11-10T16:14:07.181Z,8.93
2022-11-10T16:19:12.586Z,9.73
2022-11-10T16:24:14.300Z,10.60
2022-11-10T16:29:17.774Z,21.02
2022-11-10T16:34:19.519Z,12.90
2022-11-10T16:39:21.251Z,7.97
2022-11-10T16:44:25.220Z,16.10
2022-11-10T16:49:32.176Z,8.68
2022-11-10T16:54:33.864Z,16.52
2022-11-10T16:59:35.550Z,17.55
2022-11-10T17:04:37.213Z,5.82
2022-11-10T17:09:39.004Z,12.23
2022-11-10T17:14:41.138Z,12.52
2022-11-10T17:19:43.128Z,10.70
2022-11-10T17:24:51.839Z,5.90
2022-11-10T17:29:53.627Z,4.57
2022-11-10T17:34:55.347Z,5.65
2022-11-10T17:39:58.035Z,7.03
2022-11-10T17:44:59.838Z,7.15
2022-11-10T17:50:02.130Z,11.35
2022-11-10T17:55:04.304Z,13.20
2022-11-10T18:00:06.502Z,29.75
2022-11-10T18:05:14.197Z,26.02
2022-11-10T18:10:17.501Z,13.00
2022-11-10T18:15:19.306Z,17.88
2022-11-10T18:20:20.919Z,33.92
2022-11-10T18:25:22.642Z,23.40
2022-11-10T18:30:24.397Z,31.13
2022-11-10T18:35:26.181Z,15.85
2022-11-10T18:40:28.251Z,34.88
2022-11-10T18:45:30.309Z,24.90
2022-11-10T18:50:32.577Z,23.35
2022-11-10T18:55:34.224Z,18.08
2022-11-10T19:00:36.077Z,15.65
2022-11-10T19:05:38.657Z,40.55
2022-11-10T19:10:43.346Z,45.90
2022-11-10T19:15:45.084Z,47.00
2022-11-10T19:20:46.844Z,39.75
2022-11-10T19:25:48.524Z,30.20
2022-11-10T19:30:50.203Z,37.95
2022-11-10T19:35:51.902Z,19.75
2022-11-10T19:40:53.536Z,37.15
2022-11-10T19:45:55.332Z,38.47
2022-11-10T19:50:59.813Z,43.67
2022-11-10T19:56:03.505Z,46.35
2022-11-10T20:01:06.934Z,42.78
2022-11-10T20:06:11.085Z,48.33
2022-11-10T20:11:21.304Z,48.10
2022-11-10T20:16:23.181Z,51.13
2022-11-10T20:21:25.064Z,54.65
2022-11-10T20:26:27.121Z,44.83
2022-11-10T20:31:29.383Z,41.33
2022-11-10T20:36:31.719Z,40.35
2022-11-10T20:41:33.495Z,36.58
2022-11-10T20:51:59.757Z,59.63
2022-11-10T20:57:02.044Z,37.53
2022-11-10T21:02:03.874Z,45.53
2022-11-10T21:07:05.808Z,93.78
2022-11-10T21:12:26.618Z,44.15
2022-11-10T21:17:28.442Z,33.70
2022-11-10T21:22:30.608Z,12.90
2022-11-10T21:27:32.379Z,17.60
2022-11-10T21:32:34.440Z,10.57
2022-11-10T21:37:36.140Z,19.00
2022-11-10T21:42:37.873Z,30.90
2022-11-10T21:47:39.569Z,29.73
2022-11-10T21:52:41.259Z,21.67
2022-11-10T21:57:43.154Z,24.55
2022-11-10T22:02:45.308Z,25.80
2022-11-10T22:07:46.996Z,56.25
2022-11-10T22:13:07.529Z,28.25
2022-11-10T22:18:33.144Z,10.60
2022-11-10T22:23:53.690Z,5.32
2022-11-10T22:28:55.385Z,9.13
2022-11-10T22:33:57.057Z,20.92
2022-11-10T22:39:03.153Z,24.65
2022-11-10T22:44:06.373Z,45.72
2022-11-10T22:49:10.484Z,14.45
2022-11-10T22:54:15.538Z,27.73
2022-11-10T22:59:18.055Z,94.35
2022-11-10T23:04:19.786Z,24.67
2022-11-10T23:09:21.947Z,53.53
2022-11-10T23:14:23.820Z,16.15
2022-11-10T23:19:25.955Z,41.15
2022-11-10T23:24:27.623Z,23.50
2022-11-10T23:29:29.702Z,15.70
2022-11-10T23:34:31.468Z,14.88
2022-11-10T23:39:33.195Z,23.23
2022-11-10T23:44:35.281Z,22.80
2022-11-10T23:49:36.949Z,22.23
2022-11-10T23:54:38.982Z,19.08
2022-11-10T23:59:40.609Z,12.90
